createdAt,value
2018-08-03T12:34:13.731Z,25.7
2018-08-03T12:35:03.234Z,25.7
2018-08-03T12:35:53.829Z,25.7
2018-08-03T12:36:44.469Z,25.7
2018-08-03T12:37:34.510Z,25.7
2018-08-03T12:38:24.516Z,25.8
2018-08-03T12:39:14.372Z,25.8
2018-08-03T12:40:04.800Z,25.8
2018-08-03T12:40:54.486Z,25.8
2018-08-03T12:41:44.554Z,25.7
2018-08-03T12:42:34.629Z,25.7
2018-08-03T12:43:25.391Z,25.8
2018-08-03T12:44:15.045Z,25.8
2018-08-03T12:45:04.881Z,25.8
2018-08-03T12:45:55.377Z,25.8
2018-08-03T12:46:45.248Z,25.8
2018-08-03T12:47:34.527Z,25.8
2018-08-03T12:48:25.092Z,25.8
2018-08-03T12:49:15.169Z,25.8
2018-08-03T12:50:05.514Z,25.8
2018-08-03T12:50:55.355Z,25.8
2018-08-03T12:51:46.189Z,25.8
2018-08-03T12:52:35.975Z,25.8
2018-08-03T12:53:25.280Z,25.8
2018-08-03T12:54:15.834Z,25.8
2018-08-03T12:55:05.683Z,25.8
2018-08-03T12:55:55.972Z,25.8
2018-08-03T12:56:46.334Z,25.8
2018-08-03T12:57:36.089Z,25.8
2018-08-03T12:58:25.873Z,25.8
2018-08-03T12:59:16.014Z,25.8
2018-08-03T13:00:06.043Z,25.8
2018-08-03T13:00:56.328Z,25.8
2018-08-03T13:01:46.380Z,25.8
2018-08-03T13:02:37.200Z,25.8
2018-08-03T13:04:34.200Z,25.8
2018-08-03T13:05:23.983Z,25.8
2018-08-03T13:06:13.177Z,25.8
2018-08-03T13:07:03.933Z,25.9
2018-08-03T13:07:58.811Z,25.8
2018-08-03T13:08:58.281Z,25.9
2018-08-03T13:09:34.815Z,25.9
2018-08-03T13:10:24.041Z,25.9
2018-08-03T13:11:13.831Z,25.9
2018-08-03T13:12:04.487Z,25.9
2018-08-03T13:12:54.193Z,25.9
2018-08-03T13:13:44.806Z,25.9
2018-08-03T13:14:33.891Z,25.9
2018-08-03T13:15:24.780Z,25.9
2018-08-03T13:16:14.815Z,25.9
2018-08-03T13:17:04.593Z,25.9
2018-08-03T13:17:55.163Z,25.9
2018-08-03T13:18:44.941Z,25.9
2018-08-03T13:19:35.260Z,25.9
2018-08-03T13:20:25.282Z,25.9
2018-08-03T13:21:15.363Z,25.9
2018-08-03T13:22:05.644Z,25.9
2018-08-03T13:22:55.067Z,25.9
2018-08-03T13:23:44.599Z,25.9
2018-08-03T13:24:34.891Z,25.9
2018-08-03T13:25:24.630Z,25.9
2018-08-03T13:26:15.371Z,25.9
2018-08-03T13:27:05.074Z,25.9
2018-08-03T13:27:55.472Z,25.9
2018-08-03T13:28:46.095Z,25.9
2018-08-03T13:29:36.198Z,25.9
2018-08-03T13:30:25.365Z,25.9
2018-08-03T13:31:15.969Z,25.9
2018-08-03T13:32:06.017Z,25.9
2018-08-03T13:32:56.412Z,25.9
2018-08-03T13:33:46.134Z,26
2018-08-03T13:34:36.193Z,26
2018-08-03T13:35:26.293Z,26
2018-08-03T13:36:17.183Z,26
2018-08-03T13:37:06.095Z,26
2018-08-03T13:37:56.446Z,26
2018-08-03T13:38:46.535Z,26
2018-08-03T13:39:36.573Z,26
2018-08-03T13:40:26.647Z,26
2018-08-03T13:41:16.434Z,26
2018-08-03T13:42:07.069Z,26.1
2018-08-03T13:42:56.494Z,26
2018-08-03T13:43:47.217Z,26.1
2018-08-03T13:44:38.066Z,26.1
2018-08-03T13:45:26.528Z,26.1
2018-08-03T13:46:17.384Z,26.1
2018-08-03T13:47:07.467Z,26.1
2018-08-03T13:47:57.237Z,26.1
2018-08-03T13:48:47.306Z,26.1
2018-08-03T13:49:37.391Z,26.1
2018-08-03T13:50:28.715Z,26.1
2018-08-03T13:51:17.566Z,26.1
2018-08-03T13:52:07.866Z,26.1
2018-08-03T13:52:57.927Z,26.1
2018-08-03T13:53:47.940Z,26.1
2018-08-03T13:54:37.803Z,26.1
2018-08-03T13:55:28.140Z,26.1
2018-08-03T13:56:17.363Z,26.1
2018-08-03T13:57:07.694Z,26.1
2018-08-03T13:57:58.138Z,26.1
2018-08-03T13:58:47.278Z,26.1
2018-08-03T13:59:38.213Z,26.1
2018-08-03T14:00:27.710Z,26.1
2018-08-03T14:01:17.730Z,26.1
2018-08-03T14:02:08.100Z,26.1
2018-08-03T14:02:58.411Z,26.2
2018-08-03T14:03:48.072Z,26.2
2018-08-03T14:04:38.065Z,26.2
2018-08-03T14:05:28.063Z,26.2
2018-08-03T14:06:18.128Z,26.2
2018-08-03T14:07:07.998Z,26.2
2018-08-03T14:07:59.089Z,26.2
2018-08-03T14:08:49.165Z,26.2
2018-08-03T14:09:39.250Z,26.2
2018-08-03T14:10:29.008Z,26.2
2018-08-03T14:11:19.077Z,26.3
2018-08-03T14:12:10.002Z,26.3
2018-08-03T14:12:59.482Z,26.3
2018-08-03T14:13:49.536Z,26.3
2018-08-03T14:14:38.237Z,26.3
2018-08-03T14:15:28.897Z,26.3
2018-08-03T14:16:19.193Z,26.3
2018-08-03T14:17:09.539Z,26.3
2018-08-03T14:17:59.643Z,26.3
2018-08-03T14:18:49.753Z,26.3
2018-08-03T14:19:39.214Z,26.3
2018-08-03T14:20:29.841Z,26.3
2018-08-03T14:21:20.199Z,26.3
2018-08-03T14:22:10.771Z,26.3
2018-08-03T14:22:59.702Z,26.3
2018-08-03T14:23:50.067Z,26.3
2018-08-03T14:24:39.900Z,26.3
2018-08-03T14:25:31.398Z,26.3
2018-08-03T14:26:20.319Z,26.3
2018-08-03T14:27:09.889Z,26.3
2018-08-03T14:28:00.126Z,26.4
2018-08-03T14:28:50.456Z,26.4
2018-08-03T14:29:40.539Z,26.4
2018-08-03T14:30:30.923Z,26.4
2018-08-03T14:31:21.300Z,26.4
2018-08-03T14:32:10.760Z,26.4
2018-08-03T14:33:00.225Z,26.4
2018-08-03T14:33:51.175Z,26.4
2018-08-03T14:34:40.374Z,26.4
2018-08-03T14:35:30.069Z,26.4
2018-08-03T14:36:20.535Z,26.4
2018-08-03T14:37:11.104Z,26.4
2018-08-03T14:38:01.215Z,26.4
2018-08-03T14:38:50.767Z,26.4
2018-08-03T14:39:41.100Z,26.4
2018-08-03T14:40:31.397Z,26.4
2018-08-03T14:41:21.995Z,26.4
2018-08-03T14:42:10.763Z,26.4
2018-08-03T14:43:01.277Z,26.4
2018-08-03T14:43:51.861Z,26.5
2018-08-03T14:44:40.555Z,26.5
2018-08-03T14:45:31.529Z,26.5
2018-08-03T14:46:22.135Z,26.5
2018-08-03T14:47:11.609Z,26.5
2018-08-03T14:48:01.094Z,26.5
2018-08-03T14:48:52.030Z,26.5
2018-08-03T14:49:42.101Z,26.5
2018-08-03T14:50:31.657Z,26.5
2018-08-03T14:51:22.187Z,26.6
2018-08-03T14:52:11.745Z,26.6
2018-08-03T14:53:01.605Z,26.6
2018-08-03T14:53:52.128Z,26.6
2018-08-03T14:54:42.442Z,26.6
2018-08-03T14:55:32.249Z,26.6
2018-08-03T14:56:22.600Z,26.6
2018-08-03T14:57:12.666Z,26.6
2018-08-03T14:58:02.960Z,26.6
2018-08-03T14:58:52.511Z,26.6
2018-08-03T14:59:42.371Z,26.6
2018-08-03T15:00:32.936Z,26.6
2018-08-03T15:01:22.537Z,26.6
2018-08-03T15:02:12.769Z,26.6
2018-08-03T15:03:02.380Z,26.6
2018-08-03T15:03:53.242Z,26.6
2018-08-03T15:04:43.029Z,26.6
2018-08-03T15:05:33.087Z,26.6
2018-08-03T15:06:23.384Z,26.7
2018-08-03T15:07:13.471Z,26.7
2018-08-03T15:08:04.437Z,26.7
2018-08-03T15:08:53.757Z,26.7
2018-08-03T15:09:43.152Z,26.7
2018-08-03T15:10:33.227Z,26.7
2018-08-03T15:11:23.548Z,26.7
2018-08-03T15:12:13.300Z,26.7
2018-08-03T15:13:04.224Z,26.7
2018-08-03T15:13:54.264Z,26.8
2018-08-03T15:14:44.357Z,26.8
2018-08-03T15:15:34.137Z,26.7
2018-08-03T15:16:24.485Z,26.8
2018-08-03T15:17:14.576Z,26.8
2018-08-03T15:18:04.335Z,26.8
2018-08-03T15:18:53.870Z,26.8
2018-08-03T15:19:45.738Z,26.8
2018-08-03T15:20:34.214Z,26.8
2018-08-03T15:21:24.885Z,26.8
2018-08-03T15:22:13.899Z,26.8
2018-08-03T15:23:04.962Z,26.8
2018-08-03T15:23:54.766Z,26.8
2018-08-03T15:24:44.287Z,26.8
2018-08-03T15:25:34.567Z,26.8
2018-08-03T15:26:24.110Z,26.8
2018-08-03T15:27:14.487Z,26.8
2018-08-03T15:28:05.088Z,26.8
2018-08-03T15:28:55.373Z,26.8
2018-08-03T15:29:45.471Z,26.8
2018-08-03T15:30:35.634Z,26.8
2018-08-03T15:31:25.625Z,26.8
2018-08-03T15:32:15.169Z,26.8
2018-08-03T15:33:04.950Z,26.8
2018-08-03T15:33:55.558Z,26.9
2018-08-03T15:34:45.872Z,26.8
2018-08-03T15:35:35.975Z,26.9
2018-08-03T15:36:25.513Z,26.9
2018-08-03T15:37:15.856Z,26.9
2018-08-03T15:38:05.614Z,26.9
2018-08-03T15:38:56.204Z,26.9
2018-08-03T15:39:45.744Z,26.9
2018-08-03T15:40:35.875Z,26.9
2018-08-03T15:41:26.152Z,26.9
2018-08-03T15:42:16.489Z,26.9
2018-08-03T15:43:05.991Z,26.9
2018-08-03T15:43:55.480Z,26.9
2018-08-03T15:44:46.732Z,26.9
2018-08-03T15:45:36.552Z,26.9
2018-08-03T15:46:26.773Z,26.9
2018-08-03T15:47:17.116Z,26.9
2018-08-03T15:48:06.683Z,26.9
2018-08-03T15:48:56.696Z,26.9
2018-08-03T15:49:46.841Z,26.9
2018-08-03T15:50:36.648Z,26.9
2018-08-03T15:51:26.950Z,26.9
2018-08-03T15:52:17.270Z,26.9
2018-08-03T15:53:07.313Z,26.9
2018-08-03T15:53:57.379Z,26.9
2018-08-03T15:54:46.887Z,26.9
2018-08-03T15:55:36.667Z,26.9
2018-08-03T15:56:27.588Z,26.9
2018-08-03T15:57:17.373Z,26.9
2018-08-03T15:58:07.433Z,26.9
2018-08-03T15:58:57.486Z,26.9
2018-08-03T19:18:38.338Z,26.6
2018-08-03T19:19:13.743Z,26.6
2018-08-03T19:20:05.075Z,26.6
2018-08-03T19:20:54.579Z,26.6
2018-08-03T19:21:45.577Z,26.6
2018-08-03T19:22:33.943Z,26.6
2018-08-03T19:23:25.293Z,26.6
2018-08-03T19:24:14.116Z,26.6
2018-08-03T19:25:04.481Z,26.6
2018-08-03T19:25:54.478Z,26.6
2018-08-03T19:26:44.906Z,26.6
2018-08-03T19:27:34.880Z,26.6
2018-08-03T19:28:39.140Z,26.6
2018-08-03T19:29:14.553Z,26.6
2018-08-03T19:30:04.605Z,26.6
2018-08-03T19:30:55.173Z,26.6
2018-08-03T19:31:44.714Z,26.6
2018-08-03T19:32:34.570Z,26.6
2018-08-03T19:33:25.798Z,26.5
2018-08-03T19:34:14.976Z,26.6
2018-08-03T19:35:04.777Z,26.6
2018-08-03T19:35:55.385Z,26.6
2018-08-03T19:36:45.111Z,26.5
2018-08-03T19:37:35.813Z,26.5
2018-08-03T19:38:25.527Z,26.6
2018-08-03T19:39:15.339Z,26.5
2018-08-03T19:40:05.916Z,26.5
2018-08-03T19:40:56.294Z,26.5
2018-08-03T19:41:45.797Z,26.5
2018-08-03T19:42:35.314Z,26.5
2018-08-03T19:43:26.220Z,26.5
2018-08-03T19:44:16.546Z,26.5
2018-08-03T19:45:05.423Z,26.5
2018-08-03T19:45:56.593Z,26.5
2018-08-03T19:46:45.793Z,26.5
2018-08-03T19:47:36.465Z,26.5
2018-08-03T19:48:27.922Z,26.5
2018-08-03T19:49:31.628Z,26.5
2018-08-03T19:50:21.366Z,26.5
2018-08-03T19:50:56.430Z,26.5
2018-08-03T19:51:46.433Z,26.5
2018-08-03T19:52:51.468Z,26.5
2018-08-03T19:53:26.075Z,26.5
2018-08-03T19:54:17.502Z,26.5
2018-08-03T19:55:07.020Z,26.5
2018-08-03T19:55:56.980Z,26.5
2018-08-03T19:56:47.330Z,26.5
2018-08-03T19:57:36.950Z,26.5
2018-08-03T19:58:42.660Z,26.5
2018-08-03T19:59:18.057Z,26.5
2018-08-03T20:00:07.619Z,26.4
2018-08-03T20:00:57.775Z,26.4
2018-08-03T20:01:46.850Z,26.5
2018-08-03T20:02:51.509Z,26.4
2018-08-03T20:03:26.935Z,26.4
2018-08-03T20:04:17.271Z,26.5
2018-08-03T20:05:08.733Z,26.4
2018-08-03T20:05:57.626Z,26.4
2018-08-03T20:06:47.755Z,26.4
2018-08-03T20:07:36.966Z,26.4
2018-08-03T20:08:27.835Z,26.4
2018-08-03T20:09:18.129Z,26.4
2018-08-03T20:10:07.669Z,26.4
2018-08-03T20:10:57.229Z,26.4
2018-08-03T20:11:47.609Z,26.4
2018-08-03T20:12:38.360Z,26.4
2018-08-03T20:13:28.145Z,26.4
2018-08-03T20:14:17.759Z,26.4
2018-08-03T20:15:07.830Z,26.4
2018-08-03T20:15:58.702Z,26.4
2018-08-03T20:16:48.520Z,26.4
2018-08-03T20:17:37.952Z,26.4
2018-08-03T20:18:28.619Z,26.4
2018-08-03T20:19:18.694Z,26.4
2018-08-03T20:20:08.717Z,26.4
2018-08-03T20:21:13.687Z,26.4
2018-08-03T20:21:48.287Z,26.4
2018-08-03T20:22:39.142Z,26.4
2018-08-03T20:23:29.277Z,26.4
2018-08-03T20:24:19.279Z,26.4
2018-08-03T20:25:09.014Z,26.4
2018-08-03T20:25:59.664Z,26.4
2018-08-03T20:26:49.806Z,26.4
2018-08-03T20:27:39.596Z,26.4
2018-08-03T20:28:43.721Z,26.4
2018-08-03T20:29:19.414Z,26.4
2018-08-03T20:30:09.454Z,26.4
2018-08-03T20:31:14.484Z,26.4
2018-08-03T20:31:49.609Z,26.4
2018-08-03T20:32:40.069Z,26.4
2018-08-03T20:33:29.667Z,26.4
2018-08-03T20:34:19.718Z,26.4
2018-08-03T20:35:10.266Z,26.4
2018-08-03T20:35:59.860Z,26.4
2018-08-03T20:36:50.286Z,26.4
2018-08-03T20:37:40.054Z,26.4
2018-08-03T20:38:30.851Z,26.4
2018-08-03T20:39:21.580Z,26.4
2018-08-03T20:40:10.524Z,26.4
2018-08-03T20:41:01.304Z,26.4
2018-08-03T20:41:50.919Z,26.4
2018-08-03T20:42:40.718Z,26.4
2018-08-03T20:43:30.258Z,26.4
2018-08-03T20:44:20.576Z,26.4
2018-08-03T20:45:10.713Z,26.4
2018-08-03T20:46:01.307Z,26.4
2018-08-03T20:46:51.042Z,26.4
2018-08-03T20:47:41.425Z,26.4
2018-08-03T20:48:31.465Z,26.4
2018-08-03T20:49:20.863Z,26.4
2018-08-03T20:50:11.025Z,26.4
2018-08-03T20:51:00.806Z,26.4
2018-08-03T20:51:51.150Z,26.4
2018-08-03T20:52:56.153Z,26.4
2018-08-03T20:53:31.530Z,26.4
2018-08-03T20:54:22.089Z,26.4
2018-08-03T20:55:11.416Z,26.4
2018-08-03T20:56:01.767Z,26.4
2018-08-03T20:56:52.006Z,26.3
2018-08-03T20:57:42.158Z,26.4
2018-08-03T20:58:33.544Z,26.4
2018-08-03T20:59:22.242Z,26.3
2018-08-03T21:00:27.496Z,26.3
2018-08-03T21:01:02.456Z,26.3
2018-08-03T21:01:52.565Z,26.3
2018-08-03T21:02:42.799Z,26.3
2018-08-03T21:03:32.092Z,26.3
2018-08-03T21:04:22.671Z,26.3
2018-08-03T21:05:12.432Z,26.3
2018-08-03T21:06:02.787Z,26.3
2018-08-03T21:06:52.852Z,26.3
2018-08-03T21:07:42.366Z,26.3
2018-08-03T21:08:32.463Z,26.3
2018-08-03T21:09:23.421Z,26.3
2018-08-03T21:10:27.489Z,26.3
2018-08-03T21:11:02.872Z,26.3
2018-08-03T21:11:53.242Z,26.3
2018-08-03T21:12:44.930Z,26.3
2018-08-03T21:13:33.680Z,26.3
2018-08-03T21:14:23.705Z,26.3
2018-08-03T21:15:12.738Z,26.3
2018-08-03T21:16:03.382Z,26.3
2018-08-03T21:16:53.427Z,26.3
2018-08-03T21:17:44.128Z,26.3
2018-08-03T21:18:33.281Z,26.3
2018-08-03T21:19:23.345Z,26.3
2018-08-03T21:20:13.550Z,26.3
2018-08-03T21:21:03.711Z,26.3
2018-08-03T21:21:54.113Z,26.3
2018-08-03T21:22:44.055Z,26.3
2018-08-03T21:23:34.236Z,26.3
2018-08-03T21:24:24.203Z,26.3
2018-08-03T21:25:13.800Z,26.3
2018-08-03T21:26:19.016Z,26.3
2018-08-03T21:26:54.178Z,26.3
2018-08-03T21:27:43.918Z,26.3
2018-08-03T21:28:34.030Z,26.3
2018-08-03T21:29:24.540Z,26.3
2018-08-03T21:30:15.756Z,26.3
2018-08-03T21:31:04.837Z,26.3
2018-08-03T21:32:09.508Z,26.3
2018-08-03T21:32:44.349Z,26.3
2018-08-03T21:33:34.954Z,26.3
2018-08-03T21:34:24.607Z,26.3
2018-08-03T21:35:14.631Z,26.3
2018-08-03T21:36:04.622Z,26.3
2018-08-03T21:37:09.188Z,26.3
2018-08-03T21:37:45.207Z,26.2
2018-08-03T21:38:34.791Z,26.3
2018-08-03T21:39:39.721Z,26.3
2018-08-03T21:40:15.155Z,26.2
2018-08-03T21:41:05.194Z,26.2
2018-08-03T21:41:55.312Z,26.2
2018-08-03T21:43:00.072Z,26.2
2018-08-03T21:43:50.271Z,26.2
2018-08-03T21:44:25.579Z,26.2
2018-08-03T21:45:15.812Z,26.2
2018-08-03T21:46:05.663Z,26.2
2018-08-03T21:46:55.412Z,26.2
2018-08-03T21:47:46.052Z,26.2
2018-08-03T21:48:35.822Z,26.2
2018-08-03T21:49:26.281Z,26.2
2018-08-03T21:50:15.917Z,26.2
2018-08-03T21:51:05.994Z,26.2
2018-08-03T21:52:09.292Z,26.2
2018-08-03T21:52:46.016Z,26.2
2018-08-03T21:53:50.404Z,26.1
2018-08-03T21:54:25.723Z,26.2
2018-08-03T21:55:15.847Z,26.1
2018-08-03T21:56:06.730Z,26.1
2018-08-03T21:56:56.491Z,26.1
2018-08-03T21:57:46.252Z,26.1
2018-08-03T21:58:51.550Z,26.1
2018-08-03T21:59:25.635Z,26.1
2018-08-03T22:00:16.458Z,26.1
2018-08-03T22:01:07.076Z,26.1
2018-08-03T22:01:57.178Z,26.1
2018-08-03T22:02:45.909Z,26.1
2018-08-03T22:03:36.551Z,26.1
2018-08-03T22:04:26.028Z,26.1
2018-08-03T22:05:16.642Z,26.1
2018-08-03T22:06:22.195Z,26.1
2018-08-03T22:06:57.301Z,26.1
2018-08-03T22:07:47.872Z,26.1
2018-08-03T22:08:37.322Z,26.1
2018-08-03T22:09:27.083Z,26.1
2018-08-03T22:10:17.394Z,26.1
2018-08-03T22:11:07.069Z,26.1
2018-08-03T22:11:57.928Z,26.1
2018-08-03T22:12:47.192Z,26.1
2018-08-03T22:13:37.166Z,26.1
2018-08-03T22:14:28.667Z,26.1
2018-08-03T22:15:17.934Z,26.1
2018-08-03T22:16:07.821Z,26.1
2018-08-03T22:16:58.188Z,26.1
2018-08-03T22:17:48.139Z,26.1
2018-08-03T22:18:38.191Z,26.1
2018-08-03T22:19:28.073Z,26.1
2018-08-03T22:20:18.564Z,26.1
2018-08-03T22:21:08.393Z,26.1
2018-08-03T22:21:58.502Z,26.1
2018-08-03T22:22:48.798Z,26.1
2018-08-03T22:23:38.316Z,26.1
2018-08-03T22:24:29.937Z,26
2018-08-03T22:25:19.303Z,26
2018-08-03T22:26:09.063Z,26
2018-08-03T22:26:59.324Z,26
2018-08-03T22:27:49.283Z,26
2018-08-03T22:28:38.637Z,26
2018-08-03T22:29:29.258Z,26
2018-08-03T22:30:19.393Z,26
2018-08-03T22:31:09.119Z,26
2018-08-03T22:31:59.420Z,26
2018-08-03T22:32:49.689Z,26
2018-08-03T22:33:39.327Z,26
2018-08-03T22:34:29.159Z,26
2018-08-03T22:35:19.206Z,26
2018-08-03T22:36:09.285Z,26
2018-08-03T22:36:59.896Z,26
2018-08-03T22:37:49.902Z,26
2018-08-03T22:39:30.131Z,26
2018-08-03T22:40:20.323Z,26
2018-08-03T22:41:09.609Z,25.9
2018-08-03T22:41:59.735Z,25.9
2018-08-03T22:42:50.336Z,25.9
2018-08-03T22:43:39.578Z,25.9
2018-08-03T22:44:30.240Z,25.9
2018-08-03T22:45:19.661Z,25.9
2018-08-03T22:46:10.659Z,25.9
2018-08-03T22:47:14.921Z,25.9
2018-08-03T22:47:50.877Z,25.9
2018-08-03T22:48:40.223Z,25.9
2018-08-03T22:49:29.985Z,25.9
2018-08-03T22:50:20.590Z,25.9
2018-08-03T22:51:10.385Z,25.9
2018-08-03T22:52:00.316Z,25.9
2018-08-03T22:52:50.513Z,25.9
2018-08-03T22:53:40.621Z,25.9
2018-08-03T22:54:31.189Z,25.9
2018-08-03T22:55:20.888Z,25.9
2018-08-03T22:56:11.043Z,25.9
2018-08-03T22:57:05.009Z,25.9
2018-08-03T22:57:50.919Z,25.9
2018-08-03T22:58:40.955Z,25.9
2018-08-03T22:59:31.307Z,25.9
2018-08-03T23:00:21.383Z,25.9
2018-08-03T23:01:12.531Z,25.9
2018-08-03T23:02:01.516Z,25.9
2018-08-03T23:02:50.471Z,25.9
2018-08-03T23:03:41.620Z,25.9
2018-08-03T23:04:31.720Z,25.9
2018-08-03T23:05:21.791Z,25.9
2018-08-03T23:06:12.145Z,25.9
2018-08-03T23:07:02.204Z,25.9
2018-08-03T23:07:51.797Z,25.9
2018-08-03T23:08:41.485Z,25.9
2018-08-03T23:09:32.483Z,25.9
2018-08-03T23:10:21.465Z,25.9
2018-08-03T23:11:12.030Z,25.9
2018-08-03T23:12:01.552Z,25.9
2018-08-03T23:12:52.183Z,25.9
2018-08-03T23:13:41.674Z,25.9
2018-08-03T23:14:31.458Z,25.9
2018-08-03T23:15:21.539Z,25.9
2018-08-03T23:16:12.134Z,25.9
2018-08-03T23:17:02.428Z,25.9
2018-08-03T23:17:52.799Z,25.9
2018-08-03T23:18:42.619Z,25.9
2018-08-03T23:19:33.193Z,25.8
2018-08-03T23:20:22.441Z,25.9
2018-08-03T23:21:12.817Z,25.8
2018-08-03T23:22:02.887Z,25.8
2018-08-03T23:22:52.796Z,25.8
2018-08-03T23:23:42.943Z,25.8
2018-08-03T23:24:33.225Z,25.8
2018-08-03T23:25:23.364Z,25.8
2018-08-03T23:26:13.718Z,25.8
2018-08-03T23:27:03.474Z,25.8
2018-08-03T23:27:53.496Z,25.8
2018-08-03T23:28:43.045Z,25.8
2018-08-03T23:29:33.076Z,25.8
2018-08-03T23:30:23.956Z,25.8
2018-08-03T23:31:13.250Z,25.8
2018-08-03T23:32:03.608Z,25.8
2018-08-03T23:32:53.916Z,25.8
2018-08-03T23:33:43.721Z,25.8
2018-08-03T23:34:34.066Z,25.8
2018-08-03T23:35:24.366Z,25.8
2018-08-03T23:36:14.418Z,25.8
2018-08-03T23:37:04.258Z,25.8
2018-08-03T23:37:54.023Z,25.8
2018-08-03T23:38:44.349Z,25.8
2018-08-03T23:39:34.443Z,25.8
2018-08-03T23:40:24.750Z,25.8
2018-08-03T23:41:14.571Z,25.8
2018-08-03T23:42:04.336Z,25.8
2018-08-03T23:42:54.959Z,25.8
2018-08-03T23:43:44.769Z,25.8
2018-08-03T23:44:34.270Z,25.8
2018-08-03T23:45:24.890Z,25.8
2018-08-03T23:46:14.445Z,25.8
2018-08-03T23:47:03.975Z,25.8
2018-08-03T23:47:54.615Z,25.8
2018-08-03T23:48:44.920Z,25.8
2018-08-03T23:49:34.484Z,25.8
2018-08-03T23:50:24.763Z,25.8
2018-08-03T23:51:14.355Z,25.8
2018-08-03T23:52:04.638Z,25.8
2018-08-03T23:52:54.682Z,25.8
2018-08-03T23:53:45.555Z,25.8
2018-08-03T23:54:35.606Z,25.8
2018-08-03T23:55:25.377Z,25.8
2018-08-03T23:56:15.754Z,25.8
2018-08-03T23:57:05.481Z,25.8
2018-08-03T23:57:56.315Z,25.8
2018-08-03T23:58:46.198Z,25.8
2018-08-03T23:59:36.306Z,25.8
